Time;durP1;ratioP1;P1;durP2;ratioP2;P2;SDS_P1;SDS_P2;PMS_P1;PMS_P2;Temp;Humidity;BMP_temperature;BMP_pressure;BME280_temperature;BME280_humidity;BME280_pressure;Samples;Min_cycle;Max_cycle;Signal;HPM_P1;HPM_P2
2023/04/24 00:01:01;;;;;;;;;;;;;;;;;;5081050;28;19924;-76
2023/04/24 00:03:48;;;;;;;;;;;;;;;;;;5075658;28;19920;-75
2023/04/24 00:06:34;;;;;;;;;;;;;;;;;;5077860;28;19916;-75
2023/04/24 00:09:21;;;;;;;;;;;;;;;;;;5080831;28;20395;-75
2023/04/24 00:12:07;;;;;;;;;;;;;;;;;;5078952;28;19931;-75
2023/04/24 00:14:54;;;;;;;;;;;;;;;;;;5081502;28;19935;-77
2023/04/24 00:17:40;;;;;;;;;;;;;;;;;;5067879;28;19920;-76
2023/04/24 00:20:29;;;;;;;;;;;;;;;;;;5080645;28;19916;-76
2023/04/24 00:23:15;;;;;;;;;;;;;;;;;;5075973;28;19920;-76
2023/04/24 00:26:02;;;;;;;;;;;;;;;;;;5082342;28;19922;-76
2023/04/24 00:28:48;;;;;;;;;;;;;;;;;;5085238;28;19931;-73
2023/04/24 00:31:35;;;;;;;;;;;;;;;;;;5084839;28;19923;-75
2023/04/24 00:34:21;;;;;;;;;;;;;;;;;;5086255;28;20298;-73
2023/04/24 00:37:08;;;;;;;;;;;;;;;;;;5076736;28;20387;-76
2023/04/24 00:39:55;;;;;;;;;;;;;;;;;;5080439;28;19919;-76
2023/04/24 00:42:41;;;;;;;;;;;;;;;;;;5068287;28;20657;-75
2023/04/24 00:45:28;;;;;;;;;;;;;;;;;;5078251;28;19923;-75
2023/04/24 00:48:14;;;;;;;;;;;;;;;;;;5075545;28;19937;-75
2023/04/24 00:51:01;;;;;;;;;;;;;;;;;;5077565;28;19912;-75
2023/04/24 00:53:47;;;;;;;;;;;;;;;;;;5079604;28;19924;-73
2023/04/24 00:56:34;;;;;;;;;;;;;;;;;;5077652;28;20486;-74
2023/04/24 00:59:20;;;;;;;;;;;;;;;;;;5081990;28;19928;-73
2023/04/24 01:02:07;;;;;;;;;;;;;;;;;;5080493;28;20465;-74
2023/04/24 01:04:53;;;;;;;;;;;;;;;;;;5074176;28;19972;-74
2023/04/24 01:07:40;;;;;;;;;;;;;;;;;;5083090;28;20290;-73
2023/04/24 01:10:26;;;;;;;;;;;;;;;;;;5079884;28;19926;-73
2023/04/24 01:13:13;;;;;;;;;;;;;;;;;;5079652;28;20007;-74
2023/04/24 01:16:00;;;;;;;;;;;;;;;;;;5082055;28;19918;-74
2023/04/24 01:18:46;;;;;;;;;;;;;;;;;;5083921;28;19920;-74
2023/04/24 01:21:33;;;;;;;;;;;;;;;;;;5070977;28;20298;-73
2023/04/24 01:24:19;;;;;;;;;;;;;;;;;;5081559;28;19920;-74
2023/04/24 01:27:06;;;;;;;;;;;;;;;;;;5072623;28;19920;-75
2023/04/24 01:29:53;;;;;;;;;;;;;;;;;;5077286;28;19932;-74
2023/04/24 01:32:39;;;;;;;;;;;;;;;;;;5090533;28;19935;-75
2023/04/24 01:35:26;;;;;;;;;;;;;;;;;;5085130;28;20379;-74
2023/04/24 01:38:12;;;;;;;;;;;;;;;;;;5080851;28;19978;-75
2023/04/24 01:40:59;;;;;;;;;;;;;;;;;;5079358;28;19916;-75
2023/04/24 01:43:45;;;;;;;;;;;;;;;;;;5084390;28;20626;-75
2023/04/24 01:46:34;;;;;;;;;;;;;;;;;;5086006;28;20668;-75
2023/04/24 01:49:20;;;;;;;;;;;;;;;;;;5081188;28;19924;-75
2023/04/24 01:52:07;;;;;;;;;;;;;;;;;;5072513;28;20356;-75
2023/04/24 01:54:55;;;;;;;;;;;;;;;;;;5079956;28;19920;-75
2023/04/24 01:57:42;;;;;;;;;;;;;;;;;;5085585;28;19916;-74
2023/04/24 02:00:28;;;;;;;;;;;;;;;;;;5085547;28;19912;-75
2023/04/24 02:03:15;;;;;;;;;;;;;;;;;;5076857;28;19924;-74
2023/04/24 02:06:01;;;;;;;;;;;;;;;;;;5084692;28;19912;-74
2023/04/24 02:08:47;;;;;;;;;;;;;;;;;;5086151;28;19939;-75
2023/04/24 02:11:34;;;;;;;;;;;;;;;;;;5083030;28;19916;-75
2023/04/24 02:14:21;;;;;;;;;;;;;;;;;;5079893;28;20273;-74
2023/04/24 02:17:07;;;;;;;;;;;;;;;;;;5085036;28;19918;-74
2023/04/24 02:19:54;;;;;;;;;;;;;;;;;;5084969;28;19927;-75
2023/04/24 02:22:40;;;;;;;;;;;;;;;;;;5087957;28;19916;-74
2023/04/24 02:25:27;;;;;;;;;;;;;;;;;;5073990;28;19912;-75
2023/04/24 02:28:13;;;;;;;;;;;;;;;;;;5081228;28;19931;-75
2023/04/24 02:31:00;;;;;;;;;;;;;;;;;;5079842;28;19920;-75
2023/04/24 02:33:46;;;;;;;;;;;;;;;;;;5074001;28;19954;-74
2023/04/24 02:36:33;;;;;;;;;;;;;;;;;;5084490;28;19912;-74
2023/04/24 02:39:19;;;;;;;;;;;;;;;;;;5080581;28;19920;-74
2023/04/24 02:42:07;;;;;;;;;;;;;;;;;;5084546;28;19927;-75
2023/04/24 02:44:54;;;;;;;;;;;;;;;;;;5083196;28;20375;-75
2023/04/24 02:47:40;;;;;;;;;;;;;;;;;;5084895;28;19916;-74
2023/04/24 02:50:27;;;;;;;;;;;;;;;;;;5083987;28;19947;-74
2023/04/24 02:53:13;;;;;;;;;;;;;;;;;;5082392;28;19931;-74
2023/04/24 02:56:00;;;;;;;;;;;;;;;;;;5084149;28;19923;-75
2023/04/24 02:58:46;;;;;;;;;;;;;;;;;;5079432;28;19916;-74
2023/04/24 03:01:33;;;;;;;;;;;;;;;;;;5072400;28;20283;-74
2023/04/24 03:04:20;;;;;;;;;;;;;;;;;;5084392;28;20346;-74
2023/04/24 03:07:06;;;;;;;;;;;;;;;;;;5073376;28;19917;-75
2023/04/24 03:09:53;;;;;;;;;;;;;;;;;;5089653;28;19924;-76
2023/04/24 03:12:39;;;;;;;;;;;;;;;;;;5084590;28;20291;-74
2023/04/24 03:15:26;;;;;;;;;;;;;;;;;;5083824;28;19920;-74
2023/04/24 03:18:12;;;;;;;;;;;;;;;;;;5067321;28;19950;-74
2023/04/24 03:20:59;;;;;;;;;;;;;;;;;;5084327;28;19920;-75
2023/04/24 03:23:45;;;;;;;;;;;;;;;;;;5080176;28;19991;-74
2023/04/24 03:26:32;;;;;;;;;;;;;;;;;;5072551;28;19912;-74
2023/04/24 03:29:18;;;;;;;;;;;;;;;;;;5083069;28;19921;-74
2023/04/24 03:32:05;;;;;;;;;;;;;;;;;;5084502;28;20359;-74
2023/04/24 03:34:51;;;;;;;;;;;;;;;;;;5075612;28;19931;-75
2023/04/24 03:37:38;;;;;;;;;;;;;;;;;;5086796;28;19916;-74
2023/04/24 03:40:24;;;;;;;;;;;;;;;;;;5086939;28;19912;-75
2023/04/24 03:43:11;;;;;;;;;;;;;;;;;;5077241;28;20360;-75
2023/04/24 03:45:59;;;;;;;;;;;;;;;;;;5081015;28;20301;-74
2023/04/24 03:48:46;;;;;;;;;;;;;;;;;;5081562;28;19931;-75
2023/04/24 03:51:32;;;;;;;;;;;;;;;;;;5081617;28;19932;-75
2023/04/24 03:54:19;;;;;;;;;;;;;;;;;;5079946;28;19920;-74
2023/04/24 03:57:05;;;;;;;;;;;;;;;;;;5081143;28;19920;-74
2023/04/24 03:59:53;;;;;;;;;;;;;;;;;;5068595;28;20397;-75
2023/04/24 04:02:39;;;;;;;;;;;;;;;;;;5082595;28;20023;-74
2023/04/24 04:05:26;;;;;;;;;;;;;;;;;;5080925;28;19920;-74
2023/04/24 04:08:12;;;;;;;;;;;;;;;;;;5078446;28;21031;-75
2023/04/24 04:10:59;;;;;;;;;;;;;;;;;;5079403;28;19927;-74
2023/04/24 04:13:47;;;;;;;;;;;;;;;;;;5081669;28;19931;-74
2023/04/24 04:16:36;;;;;;;;;;;;;;;;;;5072119;28;20277;-74
2023/04/24 04:19:22;;;;;;;;;;;;;;;;;;5077166;28;19928;-74
2023/04/24 04:22:09;;;;;;;;;;;;;;;;;;5075983;28;19923;-76
2023/04/24 04:24:56;;;;;;;;;;;;;;;;;;5080900;28;19927;-75
2023/04/24 04:27:42;;;;;;;;;;;;;;;;;;5072999;28;19927;-74
2023/04/24 04:30:32;;;;;;;;;;;;;;;;;;5076935;28;19932;-75
2023/04/24 04:33:18;;;;;;;;;;;;;;;;;;5074897;28;19928;-77
2023/04/24 04:36:05;;;;;;;;;;;;;;;;;;5081592;28;19916;-77
2023/04/24 04:38:51;;;;;;;;;;;;;;;;;;5081149;28;19919;-76
2023/04/24 04:41:40;;;;;;;;;;;;;;;;;;5081998;28;19931;-76
2023/04/24 04:44:27;;;;;;;;;;;;;;;;;;5067684;28;19924;-76
2023/04/24 04:47:14;;;;;;;;;;;;;;;;;;5081407;28;19954;-76
2023/04/24 04:50:00;;;;;;;;;;;;;;;;;;5078116;28;19928;-76
2023/04/24 04:52:47;;;;;;;;;;;;;;;;;;5082787;28;19924;-76
2023/04/24 04:55:33;;;;;;;;;;;;;;;;;;5082445;28;19916;-76
2023/04/24 04:58:20;;;;;;;;;;;;;;;;;;5068053;28;19920;-75
2023/04/24 05:01:06;;;;;;;;;;;;;;;;;;5074148;28;19931;-77
2023/04/24 05:03:53;;;;;;;;;;;;;;;;;;5081371;28;19912;-79
2023/04/24 05:06:39;;;;;;;;;;;;;;;;;;5082272;28;20402;-77
2023/04/24 05:09:27;;;;;;;;;;;;;;;;;;5085975;28;19947;-77
2023/04/24 05:12:13;;;;;;;;;;;;;;;;;;5087493;28;19932;-78
2023/04/24 05:15:00;;;;;;;;;;;;;;;;;;5082676;28;20387;-77
2023/04/24 05:17:46;;;;;;;;;;;;;;;;;;5083050;28;20082;-78
2023/04/24 05:20:33;;;;;;;;;;;;;;;;;;5084447;28;19927;-78
2023/04/24 05:23:19;;;;;;;;;;;;;;;;;;5066189;28;19927;-78
2023/04/24 05:26:06;;;;;;;;;;;;;;;;;;5083328;28;19987;-77
2023/04/24 05:28:52;;;;;;;;;;;;;;;;;;5085447;28;19936;-78
2023/04/24 05:31:39;;;;;;;;;;;;;;;;;;5075997;28;19947;-76
2023/04/24 05:34:25;;;;;;;;;;;;;;;;;;5084437;28;19935;-77
2023/04/24 05:37:12;;;;;;;;;;;;;;;;;;5083278;28;19924;-77
2023/04/24 05:39:58;;;;;;;;;;;;;;;;;;5081813;28;19916;-78
2023/04/24 05:42:45;;;;;;;;;;;;;;;;;;5085464;28;19927;-78
2023/04/24 05:45:31;;;;;;;;;;;;;;;;;;5076105;28;19917;-78
2023/04/24 05:48:18;;;;;;;;;;;;;;;;;;5086505;28;20554;-76
2023/04/24 05:51:04;;;;;;;;;;;;;;;;;;5081440;28;19924;-78
2023/04/24 05:53:51;;;;;;;;;;;;;;;;;;5068442;28;19916;-79
2023/04/24 05:56:37;;;;;;;;;;;;;;;;;;5082409;28;19916;-75
2023/04/24 05:59:24;;;;;;;;;;;;;;;;;;5053907;28;19920;-77
2023/04/24 06:02:10;;;;;;;;;;;;;;;;;;5082647;28;19920;-77
2023/04/24 06:04:58;;;;;;;;;;;;;;;;;;5081367;28;20367;-75
2023/04/24 06:07:45;;;;;;;;;;;;;;;;;;5074694;28;19934;-76
2023/04/24 06:10:32;;;;;;;;;;;;;;;;;;5081750;28;19928;-77
2023/04/24 06:13:18;;;;;;;;;;;;;;;;;;5083394;28;20441;-76
2023/04/24 06:16:05;;;;;;;;;;;;;;;;;;5077911;28;19920;-74
2023/04/24 06:18:51;;;;;;;;;;;;;;;;;;5085571;28;19990;-74
2023/04/24 06:21:37;;;;;;;;;;;;;;;;;;5080717;28;19916;-73
2023/04/24 06:24:24;;;;;;;;;;;;;;;;;;5084228;28;19920;-74
2023/04/24 06:27:10;;;;;;;;;;;;;;;;;;5063815;28;19917;-74
2023/04/24 06:29:57;;;;;;;;;;;;;;;;;;5079563;28;19928;-74
2023/04/24 06:32:43;;;;;;;;;;;;;;;;;;5082907;28;20415;-75
2023/04/24 06:35:30;;;;;;;;;;;;;;;;;;5063453;28;19916;-74
2023/04/24 06:38:16;;;;;;;;;;;;;;;;;;5081616;28;19923;-74
2023/04/24 06:41:04;;;;;;;;;;;;;;;;;;5082906;28;20002;-75
2023/04/24 06:43:51;;;;;;;;;;;;;;;;;;5064017;28;19916;-74
2023/04/24 06:46:37;;;;;;;;;;;;;;;;;;5084738;28;19923;-74
2023/04/24 06:49:24;;;;;;;;;;;;;;;;;;5081589;28;19939;-75
2023/04/24 06:52:10;;;;;;;;;;;;;;;;;;5083964;28;19916;-74
2023/04/24 06:54:57;;;;;;;;;;;;;;;;;;5083371;28;19924;-74
2023/04/24 06:57:44;;;;;;;;;;;;;;;;;;5077641;28;19912;-75
2023/04/24 07:00:31;;;;;;;;;;;;;;;;;;5082556;28;19928;-74
2023/04/24 07:03:17;;;;;;;;;;;;;;;;;;5068689;28;19924;-73
2023/04/24 07:06:04;;;;;;;;;;;;;;;;;;5081306;28;19920;-74
2023/04/24 07:08:50;;;;;;;;;;;;;;;;;;5084914;28;19927;-73
2023/04/24 07:11:38;;;;;;;;;;;;;;;;;;5083313;28;19924;-73
2023/04/24 07:14:25;;;;;;;;;;;;;;;;;;5082939;28;19926;-73
2023/04/24 07:17:13;;;;;;;;;;;;;;;;;;5079752;28;19939;-74
2023/04/24 07:19:59;;;;;;;;;;;;;;;;;;5083530;28;20310;-74
2023/04/24 07:22:46;;;;;;;;;;;;;;;;;;5084675;28;20411;-73
2023/04/24 07:25:32;;;;;;;;;;;;;;;;;;5083864;28;20299;-73
2023/04/24 07:28:19;;;;;;;;;;;;;;;;;;5080597;28;19921;-72
2023/04/24 07:31:05;;;;;;;;;;;;;;;;;;5081715;28;20629;-73
2023/04/24 07:33:52;;;;;;;;;;;;;;;;;;5080613;28;20808;-73
2023/04/24 07:36:38;;;;;;;;;;;;;;;;;;5078415;28;19920;-73
2023/04/24 07:39:26;;;;;;;;;;;;;;;;;;5064462;28;19927;-73
2023/04/24 07:42:12;;;;;;;;;;;;;;;;;;5067618;28;20383;-73
2023/04/24 07:44:59;;;;;;;;;;;;;;;;;;5083364;28;19920;-73
2023/04/24 07:47:46;;;;;;;;;;;;;;;;;;5079556;28;20555;-72
2023/04/24 07:50:32;;;;;;;;;;;;;;;;;;5075231;28;19935;-73
2023/04/24 07:53:19;;;;;;;;;;;;;;;;;;5081614;28;19919;-73
2023/04/24 07:56:05;;;;;;;;;;;;;;;;;;5083059;28;19912;-73
2023/04/24 07:58:52;;;;;;;;;;;;;;;;;;5068608;28;19916;-73
2023/04/24 08:01:38;;;;;;;;;;;;;;;;;;5079720;28;19920;-75
2023/04/24 08:04:25;;;;;;;;;;;;;;;;;;5082920;28;20572;-73
2023/04/24 08:07:12;;;;;;;;;;;;;;;;;;5081064;28;19923;-73
2023/04/24 08:09:59;;;;;;;;;;;;;;;;;;5079271;28;19928;-74
2023/04/24 08:12:45;;;;;;;;;;;;;;;;;;5083747;28;19920;-73
2023/04/24 08:15:32;;;;;;;;;;;;;;;;;;5083172;28;19916;-73
2023/04/24 08:18:18;;;;;;;;;;;;;;;;;;5083354;28;19924;-73
2023/04/24 08:21:05;;;;;;;;;;;;;;;;;;5083105;28;19925;-72
2023/04/24 08:23:51;;;;;;;;;;;;;;;;;;5060806;28;19927;-72
2023/04/24 08:26:38;;;;;;;;;;;;;;;;;;5083139;28;19939;-73
2023/04/24 08:29:25;;;;;;;;;;;;;;;;;;5064851;28;20389;-74
2023/04/24 08:32:11;;;;;;;;;;;;;;;;;;5062820;28;19923;-72
2023/04/24 08:34:58;;;;;;;;;;;;;;;;;;5083297;28;19928;-72
2023/04/24 08:37:45;;;;;;;;;;;;;;;;;;5083345;28;19947;-73
2023/04/24 08:40:31;;;;;;;;;;;;;;;;;;5086447;28;19916;-73
2023/04/24 08:43:18;;;;;;;;;;;;;;;;;;5087078;28;19924;-73
2023/04/24 08:46:04;;;;;;;;;;;;;;;;;;5087866;28;19925;-74
2023/04/24 08:48:51;;;;;;;;;;;;;;;;;;5085738;28;20315;-72
2023/04/24 08:51:37;;;;;;;;;;;;;;;;;;5088447;28;20407;-73
2023/04/24 08:54:24;;;;;;;;;;;;;;;;;;5087267;28;19942;-73
2023/04/24 08:57:11;;;;;;;;;;;;;;;;;;5089840;28;19923;-73
2023/04/24 08:59:57;;;;;;;;;;;;;;;;;;5084844;28;19931;-74
2023/04/24 09:02:44;;;;;;;;;;;;;;;;;;5087185;28;19920;-73
2023/04/24 09:05:31;;;;;;;;;;;;;;;;;;5073878;28;19927;-74
2023/04/24 09:08:17;;;;;;;;;;;;;;;;;;5083537;28;19920;-73
2023/04/24 09:11:04;;;;;;;;;;;;;;;;;;5088564;28;19931;-74
2023/04/24 09:13:51;;;;;;;;;;;;;;;;;;5086810;28;19938;-73
2023/04/24 09:16:37;;;;;;;;;;;;;;;;;;5065640;28;19916;-73
2023/04/24 09:19:24;;;;;;;;;;;;;;;;;;5088173;28;20398;-74
2023/04/24 09:22:11;;;;;;;;;;;;;;;;;;5092056;28;19927;-74
2023/04/24 09:24:57;;;;;;;;;;;;;;;;;;5086385;28;20291;-75
2023/04/24 09:27:43;;;;;;;;;;;;;;;;;;5088975;28;19920;-73
2023/04/24 09:30:30;;;;;;;;;;;;;;;;;;5089638;28;19924;-74
2023/04/24 09:33:16;;;;;;;;;;;;;;;;;;5082592;28;19928;-73
2023/04/24 09:36:03;;;;;;;;;;;;;;;;;;5070748;28;19920;-73
2023/04/24 09:38:50;;;;;;;;;;;;;;;;;;5071483;28;20306;-73
2023/04/24 09:41:36;;;;;;;;;;;;;;;;;;5086092;28;19916;-74
2023/04/24 09:44:23;;;;;;;;;;;;;;;;;;5068138;28;20350;-75
2023/04/24 09:47:10;;;;;;;;;;;;;;;;;;5072614;28;19927;-76
2023/04/24 09:49:56;;;;;;;;;;;;;;;;;;5083296;28;20370;-76
2023/04/24 09:52:43;;;;;;;;;;;;;;;;;;5082255;28;19920;-75
2023/04/24 09:55:29;;;;;;;;;;;;;;;;;;5081790;28;20279;-75
2023/04/24 09:58:16;;;;;;;;;;;;;;;;;;5083681;28;19923;-77
2023/04/24 10:01:02;;;;;;;;;;;;;;;;;;5069255;28;19928;-74
2023/04/24 10:03:49;;;;;;;;;;;;;;;;;;5088807;28;19919;-76
2023/04/24 10:06:35;;;;;;;;;;;;;;;;;;5080387;28;20383;-75
2023/04/24 10:09:22;;;;;;;;;;;;;;;;;;5082239;28;19963;-75
2023/04/24 10:12:08;;;;;;;;;;;;;;;;;;5084555;28;19916;-75
2023/04/24 10:14:55;;;;;;;;;;;;;;;;;;5081740;28;19955;-74
2023/04/24 10:17:42;;;;;;;;;;;;;;;;;;5084919;28;19916;-74
2023/04/24 10:20:31;;;;;;;;;;;;;;;;;;5084527;28;19923;-75
2023/04/24 10:23:19;;;;;;;;;;;;;;;;;;5084411;28;19920;-74
2023/04/24 10:26:05;;;;;;;;;;;;;;;;;;5068159;28;19923;-75
2023/04/24 10:28:52;;;;;;;;;;;;;;;;;;5085031;28;19931;-75
2023/04/24 10:31:38;;;;;;;;;;;;;;;;;;5082679;28;19929;-77
2023/04/24 10:34:25;;;;;;;;;;;;;;;;;;5083249;28;20379;-76
2023/04/24 10:37:13;;;;;;;;;;;;;;;;;;5084414;28;19916;-75
2023/04/24 10:40:00;;;;;;;;;;;;;;;;;;5080806;28;19916;-75
2023/04/24 10:42:46;;;;;;;;;;;;;;;;;;5081730;28;19935;-75
2023/04/24 10:45:33;;;;;;;;;;;;;;;;;;5083897;28;20386;-75
2023/04/24 10:48:19;;;;;;;;;;;;;;;;;;5063803;28;19939;-76
2023/04/24 10:51:06;;;;;;;;;;;;;;;;;;5080292;28;19939;-75
2023/04/24 10:53:52;;;;;;;;;;;;;;;;;;5083109;28;19912;-75
2023/04/24 10:56:39;;;;;;;;;;;;;;;;;;5069199;28;19927;-76
2023/04/24 10:59:25;;;;;;;;;;;;;;;;;;5067677;28;19922;-76
2023/04/24 11:02:12;;;;;;;;;;;;;;;;;;5081208;28;19916;-77
2023/04/24 11:04:58;;;;;;;;;;;;;;;;;;5077171;28;20555;-76
2023/04/24 11:07:45;;;;;;;;;;;;;;;;;;5082420;28;19917;-76
2023/04/24 11:10:31;;;;;;;;;;;;;;;;;;5066108;28;19924;-76
2023/04/24 11:13:17;;;;;;;;;;;;;;;;;;5064175;28;19916;-75
2023/04/24 11:16:04;;;;;;;;;;;;;;;;;;5084121;28;19917;-76
2023/04/24 11:18:52;;;;;;;;;;;;;;;;;;5083399;28;20381;-76
2023/04/24 11:21:40;;;;;;;;;;;;;;;;;;5088141;28;19927;-75
2023/04/24 11:24:26;;;;;;;;;;;;;;;;;;5082957;28;19912;-74
2023/04/24 11:27:14;;;;;;;;;;;;;;;;;;5081594;28;19922;-74
2023/04/24 11:30:00;;;;;;;;;;;;;;;;;;5077321;28;19935;-75
2023/04/24 11:32:47;;;;;;;;;;;;;;;;;;5083884;28;19928;-74
2023/04/24 11:35:34;;;;;;;;;;;;;;;;;;5079608;28;19916;-74
2023/04/24 11:38:21;;;;;;;;;;;;;;;;;;5081956;28;20409;-75
2023/04/24 11:41:07;;;;;;;;;;;;;;;;;;5082973;28;19913;-75
2023/04/24 11:43:54;;;;;;;;;;;;;;;;;;5083148;28;20284;-76
2023/04/24 11:46:40;;;;;;;;;;;;;;;;;;5084842;28;19922;-74
2023/04/24 11:49:27;;;;;;;;;;;;;;;;;;5079246;28;20035;-74
2023/04/24 11:52:13;;;;;;;;;;;;;;;;;;5080962;28;19928;-74
2023/04/24 11:55:00;;;;;;;;;;;;;;;;;;5089438;28;19918;-75
2023/04/24 11:57:46;;;;;;;;;;;;;;;;;;5087642;28;19920;-73
2023/04/24 12:00:34;;;;;;;;;;;;;;;;;;5081614;28;19920;-75
2023/04/24 12:03:20;;;;;;;;;;;;;;;;;;5072984;28;19926;-75
2023/04/24 12:06:09;;;;;;;;;;;;;;;;;;5077702;28;20398;-74
2023/04/24 12:08:57;;;;;;;;;;;;;;;;;;5080942;28;19923;-75
2023/04/24 12:11:44;;;;;;;;;;;;;;;;;;5086716;28;19924;-75
2023/04/24 12:14:30;;;;;;;;;;;;;;;;;;5081651;28;20405;-75
2023/04/24 12:17:17;;;;;;;;;;;;;;;;;;5079556;28;19927;-75
2023/04/24 12:20:03;;;;;;;;;;;;;;;;;;5080331;28;19920;-76
2023/04/24 12:22:50;;;;;;;;;;;;;;;;;;5078346;28;20294;-76
2023/04/24 12:25:36;;;;;;;;;;;;;;;;;;5080124;28;19927;-76
2023/04/24 12:28:23;;;;;;;;;;;;;;;;;;5078957;28;19912;-77
2023/04/24 12:31:09;;;;;;;;;;;;;;;;;;5081135;28;19939;-76
2023/04/24 12:33:56;;;;;;;;;;;;;;;;;;5080273;28;19938;-74
2023/04/24 12:36:42;;;;;;;;;;;;;;;;;;5081582;28;19930;-75
2023/04/24 12:39:29;;;;;;;;;;;;;;;;;;5076842;28;19951;-76
2023/04/24 12:42:16;;;;;;;;;;;;;;;;;;5079621;28;20300;-74
2023/04/24 12:45:03;;;;;;;;;;;;;;;;;;5084220;28;19916;-75
2023/04/24 12:47:49;;;;;;;;;;;;;;;;;;5081303;28;19931;-74
2023/04/24 12:50:36;;;;;;;;;;;;;;;;;;5080042;28;19934;-75
2023/04/24 12:53:22;;;;;;;;;;;;;;;;;;5080999;28;19916;-74
2023/04/24 12:56:09;;;;;;;;;;;;;;;;;;5077879;28;19924;-76
2023/04/24 12:58:55;;;;;;;;;;;;;;;;;;5077705;28;19912;-76
2023/04/24 13:01:42;;;;;;;;;;;;;;;;;;5081324;28;19927;-76
2023/04/24 13:04:28;;;;;;;;;;;;;;;;;;5079956;28;19920;-77
2023/04/24 13:07:15;;;;;;;;;;;;;;;;;;5079491;28;19946;-76
2023/04/24 13:10:02;;;;;;;;;;;;;;;;;;5080470;28;19934;-75
2023/04/24 13:12:48;;;;;;;;;;;;;;;;;;5081161;28;19931;-76
2023/04/24 13:15:35;;;;;;;;;;;;;;;;;;5076527;28;20387;-75
2023/04/24 13:18:22;;;;;;;;;;;;;;;;;;5080376;28;19923;-76
2023/04/24 13:21:08;;;;;;;;;;;;;;;;;;5068903;28;20137;-75
2023/04/24 13:23:55;;;;;;;;;;;;;;;;;;5081939;28;20298;-75
2023/04/24 13:26:41;;;;;;;;;;;;;;;;;;5065503;28;20236;-75
2023/04/24 13:29:27;;;;;;;;;;;;;;;;;;5079827;28;19924;-74
2023/04/24 13:32:14;;;;;;;;;;;;;;;;;;5070102;28;19924;-75
2023/04/24 13:35:00;;;;;;;;;;;;;;;;;;5069129;28;19930;-75
2023/04/24 13:37:47;;;;;;;;;;;;;;;;;;5088878;28;19912;-74
2023/04/24 13:40:33;;;;;;;;;;;;;;;;;;5065372;28;19920;-74
2023/04/24 13:43:20;;;;;;;;;;;;;;;;;;5084459;28;19988;-76
2023/04/24 13:46:13;;;;;;;;;;;;;;;;;;5089140;28;19923;-74
2023/04/24 13:48:59;;;;;;;;;;;;;;;;;;5083175;28;19958;-74
2023/04/24 13:51:45;;;;;;;;;;;;;;;;;;5084758;28;19924;-73
2023/04/24 13:54:32;;;;;;;;;;;;;;;;;;5083031;28;20550;-73
2023/04/24 13:57:19;;;;;;;;;;;;;;;;;;5066110;28;19924;-76
2023/04/24 14:00:06;;;;;;;;;;;;;;;;;;5072479;28;19916;-74
2023/04/24 14:02:53;;;;;;;;;;;;;;;;;;5078412;28;19927;-74
2023/04/24 14:05:39;;;;;;;;;;;;;;;;;;5079316;28;19931;-73
2023/04/24 14:08:26;;;;;;;;;;;;;;;;;;5076993;28;19923;-74
2023/04/24 14:11:12;;;;;;;;;;;;;;;;;;5067684;28;19935;-74
2023/04/24 14:13:59;;;;;;;;;;;;;;;;;;5067504;28;19920;-76
2023/04/24 14:16:45;;;;;;;;;;;;;;;;;;5077067;28;19922;-74
2023/04/24 14:19:32;;;;;;;;;;;;;;;;;;5075868;28;19924;-74
2023/04/24 14:22:18;;;;;;;;;;;;;;;;;;5084695;28;20035;-75
2023/04/24 14:25:06;;;;;;;;;;;;;;;;;;5078918;28;20991;-75
2023/04/24 14:27:52;;;;;;;;;;;;;;;;;;5078327;28;20375;-76
2023/04/24 14:30:40;;;;;;;;;;;;;;;;;;5085157;28;20388;-77
2023/04/24 14:33:26;;;;;;;;;;;;;;;;;;5081316;28;19924;-76
2023/04/24 14:36:13;;;;;;;;;;;;;;;;;;5080213;28;19939;-77
2023/04/24 14:38:59;;;;;;;;;;;;;;;;;;5081901;28;19920;-77
2023/04/24 14:41:46;;;;;;;;;;;;;;;;;;5086926;27;19920;-76
2023/04/24 14:44:32;;;;;;;;;;;;;;;;;;5082809;28;19924;-77
2023/04/24 14:47:21;;;;;;;;;;;;;;;;;;5079954;28;19924;-77
2023/04/24 14:50:08;;;;;;;;;;;;;;;;;;5064761;28;19950;-76
2023/04/24 14:52:56;;;;;;;;;;;;;;;;;;5084694;28;19936;-77
2023/04/24 14:55:43;;;;;;;;;;;;;;;;;;5076011;28;19919;-75
2023/04/24 14:58:29;;;;;;;;;;;;;;;;;;5095502;28;19920;-75
2023/04/24 15:01:16;;;;;;;;;;;;;;;;;;5067670;28;19928;-75
2023/04/24 15:04:02;;;;;;;;;;;;;;;;;;5084372;28;19975;-76
2023/04/24 15:06:49;;;;;;;;;;;;;;;;;;5083249;28;19916;-75
2023/04/24 15:09:36;;;;;;;;;;;;;;;;;;5079893;28;19924;-75
2023/04/24 15:12:22;;;;;;;;;;;;;;;;;;5083662;28;19931;-75
2023/04/24 15:15:09;;;;;;;;;;;;;;;;;;5082744;28;19916;-75
2023/04/24 15:17:55;;;;;;;;;;;;;;;;;;5080182;28;19916;-80
2023/04/24 15:20:42;;;;;;;;;;;;;;;;;;5079220;28;19916;-75
2023/04/24 15:23:29;;;;;;;;;;;;;;;;;;5067347;28;20343;-75
2023/04/24 15:26:15;;;;;;;;;;;;;;;;;;5067897;28;19923;-75
2023/04/24 15:29:02;;;;;;;;;;;;;;;;;;5081953;28;19916;-75
2023/04/24 15:31:48;;;;;;;;;;;;;;;;;;5077101;28;20264;-76
2023/04/24 15:34:35;;;;;;;;;;;;;;;;;;5065336;28;20295;-75
2023/04/24 15:37:21;;;;;;;;;;;;;;;;;;5083082;28;20207;-75
2023/04/24 15:40:08;;;;;;;;;;;;;;;;;;5076377;28;19920;-74
2023/04/24 15:42:54;;;;;;;;;;;;;;;;;;5078393;28;19920;-75
2023/04/24 15:45:41;;;;;;;;;;;;;;;;;;5084966;28;19923;-75
2023/04/24 15:48:28;;;;;;;;;;;;;;;;;;5064343;28;19923;-74
2023/04/24 15:51:14;;;;;;;;;;;;;;;;;;5084308;28;19928;-74
2023/04/24 15:54:01;;;;;;;;;;;;;;;;;;5081024;28;19920;-75
2023/04/24 15:56:47;;;;;;;;;;;;;;;;;;5065534;28;19926;-74
2023/04/24 15:59:34;;;;;;;;;;;;;;;;;;5079880;28;19939;-76
2023/04/24 16:02:20;;;;;;;;;;;;;;;;;;5079099;28;19920;-75
2023/04/24 16:05:07;;;;;;;;;;;;;;;;;;5082309;28;19920;-76
2023/04/24 16:07:54;;;;;;;;;;;;;;;;;;5076416;28;19919;-77
2023/04/24 16:10:40;;;;;;;;;;;;;;;;;;5062324;28;19924;-74
2023/04/24 16:13:28;;;;;;;;;;;;;;;;;;5080464;28;20386;-75
2023/04/24 16:16:15;;;;;;;;;;;;;;;;;;5076680;28;19920;-74
2023/04/24 16:19:01;;;;;;;;;;;;;;;;;;5079933;28;19916;-74
2023/04/24 16:21:48;;;;;;;;;;;;;;;;;;5080746;28;20344;-74
2023/04/24 16:24:34;;;;;;;;;;;;;;;;;;5079573;28;19920;-74
2023/04/24 16:27:21;;;;;;;;;;;;;;;;;;5079868;28;20378;-74
2023/04/24 16:30:08;;;;;;;;;;;;;;;;;;5063610;28;20019;-74
2023/04/24 16:32:54;;;;;;;;;;;;;;;;;;5077546;28;19936;-75
2023/04/24 16:35:42;;;;;;;;;;;;;;;;;;5080321;28;19931;-73
2023/04/24 16:38:28;;;;;;;;;;;;;;;;;;5083106;28;19920;-74
2023/04/24 16:41:15;;;;;;;;;;;;;;;;;;5079069;28;19920;-74
2023/04/24 16:44:01;;;;;;;;;;;;;;;;;;5080211;28;19920;-74
2023/04/24 16:46:48;;;;;;;;;;;;;;;;;;5062696;28;19923;-75
2023/04/24 16:49:34;;;;;;;;;;;;;;;;;;5077579;28;19924;-74
2023/04/24 16:52:21;;;;;;;;;;;;;;;;;;5066225;28;19919;-74
2023/04/24 16:55:08;;;;;;;;;;;;;;;;;;5078359;28;19916;-74
2023/04/24 16:57:55;;;;;;;;;;;;;;;;;;5080062;28;19927;-75
2023/04/24 17:00:42;;;;;;;;;;;;;;;;;;5067717;28;19927;-74
2023/04/24 17:03:29;;;;;;;;;;;;;;;;;;5094654;28;20418;-74
2023/04/24 17:06:15;;;;;;;;;;;;;;;;;;5083296;28;19927;-74
2023/04/24 17:09:02;;;;;;;;;;;;;;;;;;5081632;28;19916;-74
2023/04/24 17:11:49;;;;;;;;;;;;;;;;;;5084970;28;19928;-74
2023/04/24 17:14:35;;;;;;;;;;;;;;;;;;5085722;28;19920;-74
2023/04/24 17:17:22;;;;;;;;;;;;;;;;;;5085551;28;19918;-74
2023/04/24 17:20:09;;;;;;;;;;;;;;;;;;5068925;28;19912;-74
2023/04/24 17:22:55;;;;;;;;;;;;;;;;;;5081621;28;19931;-75
2023/04/24 17:25:42;;;;;;;;;;;;;;;;;;5084686;28;19924;-74
2023/04/24 17:28:28;;;;;;;;;;;;;;;;;;5080555;28;19920;-74
2023/04/24 17:31:15;;;;;;;;;;;;;;;;;;5083096;28;19925;-74
2023/04/24 17:34:02;;;;;;;;;;;;;;;;;;5074281;28;19936;-74
2023/04/24 17:36:49;;;;;;;;;;;;;;;;;;5085928;28;19946;-75
2023/04/24 17:39:35;;;;;;;;;;;;;;;;;;5083013;28;20401;-74
2023/04/24 17:42:22;;;;;;;;;;;;;;;;;;5086089;28;19916;-74
2023/04/24 17:45:09;;;;;;;;;;;;;;;;;;5086685;28;19916;-75
2023/04/24 17:47:55;;;;;;;;;;;;;;;;;;5081956;28;20683;-75
2023/04/24 17:50:42;;;;;;;;;;;;;;;;;;5092196;28;19924;-74
2023/04/24 17:53:28;;;;;;;;;;;;;;;;;;5080136;28;20307;-74
2023/04/24 17:56:15;;;;;;;;;;;;;;;;;;5088005;28;19923;-75
2023/04/24 17:59:01;;;;;;;;;;;;;;;;;;5081715;28;19912;-75
2023/04/24 18:01:48;;;;;;;;;;;;;;;;;;5082136;28;19920;-74
2023/04/24 18:04:34;;;;;;;;;;;;;;;;;;5079253;28;19920;-74
2023/04/24 18:07:21;;;;;;;;;;;;;;;;;;5087141;28;19920;-75
2023/04/24 18:10:07;;;;;;;;;;;;;;;;;;5084888;28;19967;-76
2023/04/24 18:12:54;;;;;;;;;;;;;;;;;;5077495;28;19924;-78
2023/04/24 18:15:42;;;;;;;;;;;;;;;;;;5084607;28;19923;-77
2023/04/24 18:18:28;;;;;;;;;;;;;;;;;;5079685;28;19920;-77
2023/04/24 18:21:15;;;;;;;;;;;;;;;;;;5076663;28;19916;-77
2023/04/24 18:24:01;;;;;;;;;;;;;;;;;;5084674;28;19919;-77
2023/04/24 18:26:48;;;;;;;;;;;;;;;;;;5078141;28;19923;-76
2023/04/24 18:29:34;;;;;;;;;;;;;;;;;;5069308;28;19916;-75
2023/04/24 18:32:20;;;;;;;;;;;;;;;;;;5071555;28;19928;-74
2023/04/24 18:35:07;;;;;;;;;;;;;;;;;;5068027;28;19917;-75
2023/04/24 18:37:53;;;;;;;;;;;;;;;;;;5065122;28;20655;-75
2023/04/24 18:40:40;;;;;;;;;;;;;;;;;;5066235;28;19925;-75
2023/04/24 18:43:26;;;;;;;;;;;;;;;;;;5065271;28;19919;-75
2023/04/24 18:46:13;;;;;;;;;;;;;;;;;;5064960;28;19913;-74
2023/04/24 18:49:00;;;;;;;;;;;;;;;;;;5065312;28;19925;-75
2023/04/24 18:51:46;;;;;;;;;;;;;;;;;;5064335;28;19924;-74
2023/04/24 18:54:33;;;;;;;;;;;;;;;;;;5060640;28;19927;-74
2023/04/24 18:57:20;;;;;;;;;;;;;;;;;;5064816;28;19925;-74